Time;durP1;ratioP1;P1;durP2;ratioP2;P2;SDS_P1;SDS_P2;PMS_P1;PMS_P2;Temp;Humidity;BMP_temperature;BMP_pressure;BME280_temperature;BME280_humidity;BME280_pressure;Samples;Min_cycle;Max_cycle;Signal;HPM_P1;HPM_P2
2022/03/01 00:01:14;;;;;;;;;;;21.50;21.70;;;;;;456407;261;1185;-76
2022/03/01 00:03:16;;;;;;;;;;;21.50;21.70;;;;;;456464;258;1222;-76
2022/03/01 00:05:17;;;;;;;;;;;21.50;21.70;;;;;;456418;261;2210;-76
2022/03/01 00:07:18;;;;;;;;;;;21.50;21.70;;;;;;456442;260;1163;-76
2022/03/01 00:09:20;;;;;;;;;;;21.40;21.60;;;;;;456428;261;1268;-76
2022/03/01 00:11:21;;;;;;;;;;;21.40;21.60;;;;;;456436;260;1138;-76
2022/03/01 00:13:23;;;;;;;;;;;21.40;21.60;;;;;;456506;261;1052;-76
2022/03/01 00:15:24;;;;;;;;;;;21.50;21.60;;;;;;456431;260;1244;-76
2022/03/01 00:17:25;;;;;;;;;;;21.50;21.60;;;;;;456425;261;1089;-76
2022/03/01 00:19:27;;;;;;;;;;;21.50;21.60;;;;;;456465;261;986;-76
2022/03/01 00:21:28;;;;;;;;;;;21.40;21.60;;;;;;456344;261;1163;-76
2022/03/01 00:23:30;;;;;;;;;;;21.40;21.60;;;;;;456438;261;977;-76
2022/03/01 00:25:31;;;;;;;;;;;21.40;21.50;;;;;;456362;260;2195;-76
2022/03/01 00:27:32;;;;;;;;;;;21.40;21.60;;;;;;456343;261;1490;-76
2022/03/01 00:29:34;;;;;;;;;;;21.40;21.60;;;;;;456463;261;1025;-76
2022/03/01 00:31:35;;;;;;;;;;;21.50;21.50;;;;;;456356;261;1205;-76
2022/03/01 00:33:36;;;;;;;;;;;21.50;21.50;;;;;;448713;265;1047;-76
2022/03/01 00:35:38;;;;;;;;;;;21.60;21.50;;;;;;456443;260;992;-76
2022/03/01 00:37:39;;;;;;;;;;;21.70;21.30;;;;;;456356;261;1084;-76
2022/03/01 00:39:41;;;;;;;;;;;21.80;21.20;;;;;;456380;260;945;-76
2022/03/01 00:41:42;;;;;;;;;;;22.00;21.20;;;;;;449012;265;953;-76
2022/03/01 00:43:43;;;;;;;;;;;22.10;21.10;;;;;;456349;261;1052;-76
2022/03/01 00:45:45;;;;;;;;;;;22.30;21.00;;;;;;456357;260;2207;-76
2022/03/01 00:47:46;;;;;;;;;;;22.40;21.00;;;;;;456374;261;969;-76
2022/03/01 00:49:47;;;;;;;;;;;22.50;20.90;;;;;;456384;260;977;-76
2022/03/01 00:51:49;;;;;;;;;;;22.50;20.90;;;;;;456433;261;1114;-76
2022/03/01 00:53:50;;;;;;;;;;;22.50;20.90;;;;;;456528;261;1165;-77
2022/03/01 00:55:51;;;;;;;;;;;22.30;20.90;;;;;;456448;261;1120;-76
2022/03/01 00:57:53;;;;;;;;;;;22.30;21.00;;;;;;456508;260;1063;-76
2022/03/01 00:59:54;;;;;;;;;;;22.30;21.00;;;;;;456529;261;1039;-76
2022/03/01 01:01:55;;;;;;;;;;;22.20;21.00;;;;;;456419;260;1180;-76
2022/03/01 01:03:57;;;;;;;;;;;22.00;21.10;;;;;;456456;261;1353;-76
2022/03/01 01:05:58;;;;;;;;;;;22.00;21.10;;;;;;456525;260;2191;-76
2022/03/01 01:08:00;;;;;;;;;;;22.00;21.20;;;;;;456434;261;1190;-76
2022/03/01 01:10:01;;;;;;;;;;;21.80;21.10;;;;;;448847;265;999;-76
2022/03/01 01:12:02;;;;;;;;;;;21.80;21.20;;;;;;456402;261;1227;-76
2022/03/01 01:14:04;;;;;;;;;;;21.70;21.20;;;;;;456500;261;943;-76
2022/03/01 01:16:05;;;;;;;;;;;21.70;21.20;;;;;;456421;261;1334;-76
2022/03/01 01:18:06;;;;;;;;;;;21.60;21.20;;;;;;456510;261;1069;-76
2022/03/01 01:20:08;;;;;;;;;;;21.90;21.10;;;;;;456514;260;970;-76
2022/03/01 01:24:28;;;;;;;;;;;21.60;21.30;;;;;;456441;260;1157;-76
2022/03/01 01:26:30;;;;;;;;;;;21.60;21.20;;;;;;456412;261;2199;-76
2022/03/01 01:28:32;;;;;;;;;;;21.50;21.30;;;;;;456435;260;1138;-76
2022/03/01 01:30:34;;;;;;;;;;;21.50;21.30;;;;;;456464;261;1104;-76
2022/03/01 01:32:35;;;;;;;;;;;21.50;21.30;;;;;;456450;260;1196;-76
2022/03/01 01:34:36;;;;;;;;;;;21.60;21.30;;;;;;456504;260;946;-76
2022/03/01 01:36:38;;;;;;;;;;;21.50;21.30;;;;;;456419;261;970;-76
2022/03/01 01:38:39;;;;;;;;;;;21.50;21.30;;;;;;456509;260;946;-76
2022/03/01 01:40:40;;;;;;;;;;;21.50;21.30;;;;;;456499;261;1092;-76
2022/03/01 01:42:42;;;;;;;;;;;21.40;21.30;;;;;;456497;261;1238;-76
2022/03/01 01:44:43;;;;;;;;;;;21.40;21.30;;;;;;448781;265;946;-76
2022/03/01 01:46:45;;;;;;;;;;;21.60;21.30;;;;;;448840;265;2207;-76
2022/03/01 01:48:46;;;;;;;;;;;21.60;21.30;;;;;;448831;265;1219;-76
2022/03/01 01:50:48;;;;;;;;;;;21.40;21.30;;;;;;448749;265;1355;-76
2022/03/01 01:52:50;;;;;;;;;;;21.50;21.30;;;;;;448752;265;1205;-76
2022/03/01 01:54:51;;;;;;;;;;;21.40;21.30;;;;;;448706;265;1042;-76
2022/03/01 01:56:52;;;;;;;;;;;21.40;21.30;;;;;;448736;262;1116;-76
2022/03/01 01:58:54;;;;;;;;;;;21.40;21.30;;;;;;448817;265;990;-76
2022/03/01 02:00:55;;;;;;;;;;;21.40;21.40;;;;;;447257;266;1155;-76
2022/03/01 02:02:57;;;;;;;;;;;21.40;21.40;;;;;;459013;258;1172;-76
2022/03/01 02:04:58;;;;;;;;;;;21.40;21.40;;;;;;459029;259;2122;-76
2022/03/01 02:06:59;;;;;;;;;;;21.30;21.40;;;;;;458976;259;1269;-76
2022/03/01 02:09:01;;;;;;;;;;;21.40;21.40;;;;;;459051;259;978;-76
2022/03/01 02:11:02;;;;;;;;;;;21.40;21.30;;;;;;458965;259;1177;-76
2022/03/01 02:13:03;;;;;;;;;;;21.40;21.40;;;;;;459421;259;1276;-76
2022/03/01 02:15:05;;;;;;;;;;;21.40;21.40;;;;;;459419;258;1042;-76
2022/03/01 02:17:06;;;;;;;;;;;21.40;21.30;;;;;;448694;264;1204;-76
2022/03/01 02:19:07;;;;;;;;;;;21.30;21.40;;;;;;448758;265;970;-76
2022/03/01 02:21:09;;;;;;;;;;;21.30;21.40;;;;;;448745;265;1325;-76
2022/03/01 02:23:10;;;;;;;;;;;21.40;21.40;;;;;;448761;265;1111;-76
2022/03/01 02:25:11;;;;;;;;;;;21.40;21.40;;;;;;448696;265;2219;-76
2022/03/01 02:27:13;;;;;;;;;;;21.30;21.40;;;;;;448705;265;1229;-76
2022/03/01 02:29:14;;;;;;;;;;;21.40;21.30;;;;;;456415;261;1424;-76
2022/03/01 02:31:15;;;;;;;;;;;21.40;21.40;;;;;;456424;260;1267;-76
2022/03/01 02:33:17;;;;;;;;;;;21.40;21.40;;;;;;456371;261;1188;-76
2022/03/01 02:35:18;;;;;;;;;;;21.20;21.40;;;;;;456422;261;959;-76
2022/03/01 02:37:19;;;;;;;;;;;21.20;21.40;;;;;;456337;260;1239;-76
2022/03/01 02:39:21;;;;;;;;;;;21.30;21.50;;;;;;456413;261;980;-76
2022/03/01 02:41:23;;;;;;;;;;;21.30;21.40;;;;;;456343;261;1310;-76
2022/03/01 02:43:23;;;;;;;;;;;21.50;21.30;;;;;;456355;256;1234;-76
2022/03/01 02:45:25;;;;;;;;;;;21.70;21.20;;;;;;448683;265;2210;-76
2022/03/01 02:47:26;;;;;;;;;;;21.80;21.20;;;;;;456410;260;1368;-76
2022/03/01 02:49:28;;;;;;;;;;;22.00;21.10;;;;;;456369;261;992;-76
2022/03/01 02:51:29;;;;;;;;;;;22.00;21.10;;;;;;456400;260;1133;-76
2022/03/01 02:53:30;;;;;;;;;;;22.10;21.00;;;;;;456433;261;1006;-76
2022/03/01 02:55:32;;;;;;;;;;;22.20;21.00;;;;;;456404;260;957;-76
2022/03/01 02:57:33;;;;;;;;;;;22.30;20.90;;;;;;456487;260;1153;-76
2022/03/01 02:59:34;;;;;;;;;;;22.30;20.90;;;;;;456451;261;1118;-76
2022/03/01 03:01:36;;;;;;;;;;;22.20;20.90;;;;;;456470;260;1084;-76
2022/03/01 03:03:37;;;;;;;;;;;22.10;20.90;;;;;;456500;261;1266;-76
2022/03/01 03:05:38;;;;;;;;;;;22.00;21.00;;;;;;456434;260;2228;-76
2022/03/01 03:07:40;;;;;;;;;;;21.80;21.00;;;;;;456499;261;1094;-76
2022/03/01 03:09:41;;;;;;;;;;;21.80;21.10;;;;;;448839;265;996;-76
2022/03/01 03:11:43;;;;;;;;;;;21.70;21.20;;;;;;456507;260;1352;-76
2022/03/01 03:13:44;;;;;;;;;;;21.70;21.20;;;;;;456526;261;1497;-76
2022/03/01 03:15:45;;;;;;;;;;;21.70;21.20;;;;;;456552;261;961;-76
2022/03/01 03:17:49;;;;;;;;;;;21.60;21.20;;;;;;456473;261;1156;-76
2022/03/01 03:19:48;;;;;;;;;;;21.60;21.20;;;;;;456605;256;1481;-76
2022/03/01 03:21:50;;;;;;;;;;;21.50;21.20;;;;;;448791;265;1256;-76
2022/03/01 03:23:52;;;;;;;;;;;21.40;21.20;;;;;;456547;261;1130;-76
2022/03/01 03:25:53;;;;;;;;;;;21.50;21.30;;;;;;456511;261;2127;-76
2022/03/01 03:27:54;;;;;;;;;;;21.50;21.30;;;;;;456480;260;1273;-76
2022/03/01 03:29:56;;;;;;;;;;;21.50;21.30;;;;;;456532;261;1134;-76
2022/03/01 03:31:57;;;;;;;;;;;21.40;21.30;;;;;;456430;260;1253;-76
2022/03/01 03:33:58;;;;;;;;;;;21.50;21.30;;;;;;456522;261;1342;-76
2022/03/01 03:36:00;;;;;;;;;;;21.30;21.30;;;;;;456473;260;1295;-76
2022/03/01 03:38:01;;;;;;;;;;;21.40;21.30;;;;;;456483;261;1221;-76
2022/03/01 03:40:03;;;;;;;;;;;21.50;21.30;;;;;;456436;260;967;-76
2022/03/01 03:42:04;;;;;;;;;;;21.50;21.30;;;;;;456337;261;1423;-76
2022/03/01 03:44:05;;;;;;;;;;;21.50;21.30;;;;;;456437;261;1158;-76
2022/03/01 03:46:07;;;;;;;;;;;21.40;21.20;;;;;;456431;261;2196;-76
2022/03/01 03:48:08;;;;;;;;;;;21.40;21.30;;;;;;456463;261;1191;-76
2022/03/01 03:50:10;;;;;;;;;;;21.50;21.30;;;;;;456449;260;946;-76
2022/03/01 03:52:11;;;;;;;;;;;21.40;21.40;;;;;;456442;261;1214;-76
2022/03/01 03:54:13;;;;;;;;;;;21.40;21.30;;;;;;456506;261;1021;-76
2022/03/01 03:56:14;;;;;;;;;;;21.50;21.20;;;;;;456425;260;1006;-76
2022/03/01 03:58:15;;;;;;;;;;;21.40;21.30;;;;;;456511;261;1036;-76
2022/03/01 04:00:17;;;;;;;;;;;21.40;21.30;;;;;;456380;261;1065;-76
2022/03/01 04:02:18;;;;;;;;;;;21.30;21.30;;;;;;456525;261;1031;-76
2022/03/01 04:04:19;;;;;;;;;;;21.40;21.30;;;;;;456509;260;1175;-76
2022/03/01 04:06:21;;;;;;;;;;;21.30;21.30;;;;;;456434;260;2210;-76
2022/03/01 04:08:22;;;;;;;;;;;21.40;21.30;;;;;;456459;261;1123;-76
2022/03/01 04:10:23;;;;;;;;;;;21.30;21.30;;;;;;456410;261;962;-76
2022/03/01 04:12:25;;;;;;;;;;;21.40;21.20;;;;;;456379;261;1242;-76
2022/03/01 04:14:26;;;;;;;;;;;21.40;21.30;;;;;;448767;265;1174;-76
2022/03/01 04:16:28;;;;;;;;;;;21.50;21.20;;;;;;456351;261;1120;-76
2022/03/01 04:18:29;;;;;;;;;;;21.40;21.30;;;;;;456338;261;1502;-76
2022/03/01 04:20:31;;;;;;;;;;;21.40;21.30;;;;;;456392;260;1388;-76
2022/03/01 04:22:32;;;;;;;;;;;21.30;21.40;;;;;;456334;261;1207;-76
2022/03/01 04:24:34;;;;;;;;;;;21.20;21.30;;;;;;456462;261;932;-76
2022/03/01 04:26:36;;;;;;;;;;;21.20;21.30;;;;;;456387;260;2183;-76
2022/03/01 04:28:37;;;;;;;;;;;21.20;21.30;;;;;;456473;261;998;-76
2022/03/01 04:30:38;;;;;;;;;;;21.20;21.40;;;;;;456428;261;1248;-76
2022/03/01 04:32:40;;;;;;;;;;;21.30;21.40;;;;;;456372;260;1145;-76
2022/03/01 04:34:41;;;;;;;;;;;21.20;21.40;;;;;;456402;261;1172;-76
2022/03/01 04:36:43;;;;;;;;;;;21.30;21.40;;;;;;456344;261;1219;-76
2022/03/01 04:38:44;;;;;;;;;;;21.40;21.30;;;;;;456430;261;1001;-76
2022/03/01 04:40:45;;;;;;;;;;;21.30;21.30;;;;;;456342;261;973;-76
2022/03/01 04:42:47;;;;;;;;;;;21.30;21.30;;;;;;456365;261;1508;-76
2022/03/01 04:44:48;;;;;;;;;;;21.30;21.40;;;;;;456410;260;969;-76
2022/03/01 04:46:49;;;;;;;;;;;21.10;21.40;;;;;;456298;261;2132;-76
2022/03/01 04:48:51;;;;;;;;;;;21.30;21.40;;;;;;456296;261;1198;-76
2022/03/01 04:50:52;;;;;;;;;;;21.40;21.30;;;;;;456255;260;1399;-76
2022/03/01 04:52:53;;;;;;;;;;;21.60;21.20;;;;;;456391;261;1093;-76
2022/03/01 04:54:55;;;;;;;;;;;21.70;21.10;;;;;;456323;260;1237;-76
2022/03/01 04:56:56;;;;;;;;;;;21.80;21.10;;;;;;456325;261;1190;-76
2022/03/01 04:58:57;;;;;;;;;;;21.90;21.10;;;;;;456374;260;1067;-76
2022/03/01 05:01:01;;;;;;;;;;;22.00;21.00;;;;;;456346;261;1249;-76
2022/03/01 05:03:00;;;;;;;;;;;21.90;21.00;;;;;;456513;256;1545;-76
2022/03/01 05:05:01;;;;;;;;;;;22.00;21.00;;;;;;456370;260;1220;-76
2022/03/01 05:07:03;;;;;;;;;;;22.00;21.00;;;;;;456272;261;2214;-76
2022/03/01 05:09:04;;;;;;;;;;;21.90;21.00;;;;;;456253;260;1093;-76
2022/03/01 05:11:05;;;;;;;;;;;22.00;21.00;;;;;;456242;261;1003;-76
2022/03/01 05:13:07;;;;;;;;;;;21.80;21.00;;;;;;456416;260;1103;-76
2022/03/01 05:15:08;;;;;;;;;;;21.90;21.10;;;;;;456191;260;1047;-76
2022/03/01 05:17:09;;;;;;;;;;;21.80;21.10;;;;;;456130;260;1361;-77
2022/03/01 05:19:11;;;;;;;;;;;21.60;21.20;;;;;;456155;261;1120;-76
2022/03/01 05:21:12;;;;;;;;;;;21.50;21.20;;;;;;456056;260;1009;-76
2022/03/01 05:23:13;;;;;;;;;;;21.50;21.20;;;;;;456141;260;1078;-76
2022/03/01 05:25:15;;;;;;;;;;;21.40;21.30;;;;;;456207;260;975;-76
2022/03/01 05:27:16;;;;;;;;;;;21.40;21.30;;;;;;456156;260;2162;-76
2022/03/01 05:29:17;;;;;;;;;;;21.40;21.30;;;;;;456154;260;1138;-76
2022/03/01 05:31:19;;;;;;;;;;;21.40;21.30;;;;;;455966;260;1281;-77
2022/03/01 05:33:20;;;;;;;;;;;21.40;21.30;;;;;;456270;256;1265;-76
2022/03/01 05:35:21;;;;;;;;;;;21.40;21.40;;;;;;456146;261;1174;-76
2022/03/01 05:37:23;;;;;;;;;;;21.30;21.40;;;;;;456068;260;1257;-76
2022/03/01 05:39:24;;;;;;;;;;;21.30;21.40;;;;;;455970;260;989;-76
2022/03/01 05:41:25;;;;;;;;;;;21.30;21.40;;;;;;456055;260;1161;-76
2022/03/01 05:43:27;;;;;;;;;;;21.30;21.40;;;;;;456259;260;1219;-76
2022/03/01 05:45:28;;;;;;;;;;;21.40;21.30;;;;;;456099;261;1239;-76
2022/03/01 05:47:29;;;;;;;;;;;21.40;21.30;;;;;;456165;260;2144;-76
2022/03/01 05:49:30;;;;;;;;;;;21.40;21.30;;;;;;456043;261;1193;-75
2022/03/01 05:51:32;;;;;;;;;;;21.40;21.30;;;;;;455977;260;1142;-76
2022/03/01 05:53:33;;;;;;;;;;;21.40;21.30;;;;;;456006;260;962;-76
2022/03/01 05:55:34;;;;;;;;;;;21.40;21.30;;;;;;455977;260;1208;-76
2022/03/01 05:57:36;;;;;;;;;;;21.40;21.30;;;;;;455834;260;1263;-76
2022/03/01 05:59:37;;;;;;;;;;;21.40;21.30;;;;;;455832;261;1021;-76
2022/03/01 06:01:39;;;;;;;;;;;21.40;21.30;;;;;;455890;260;1224;-76
2022/03/01 06:03:40;;;;;;;;;;;21.50;21.20;;;;;;456001;261;987;-76
2022/03/01 06:05:41;;;;;;;;;;;21.40;21.20;;;;;;455977;261;1211;-76
2022/03/01 06:07:43;;;;;;;;;;;21.40;21.30;;;;;;455991;261;2136;-76
2022/03/01 06:09:44;;;;;;;;;;;21.40;21.30;;;;;;455985;260;995;-76
2022/03/01 06:11:45;;;;;;;;;;;21.40;21.20;;;;;;455853;261;1168;-76
2022/03/01 06:13:47;;;;;;;;;;;21.40;21.20;;;;;;455879;260;1128;-76
2022/03/01 06:15:48;;;;;;;;;;;21.40;21.20;;;;;;455951;258;1259;-76
2022/03/01 06:17:49;;;;;;;;;;;21.40;21.30;;;;;;455933;260;1158;-76
2022/03/01 06:19:51;;;;;;;;;;;21.40;21.20;;;;;;456010;260;1232;-76
2022/03/01 06:21:52;;;;;;;;;;;21.50;21.20;;;;;;455944;261;1221;-76
2022/03/01 06:23:53;;;;;;;;;;;21.40;21.30;;;;;;455947;261;1172;-76
2022/03/01 06:25:55;;;;;;;;;;;21.30;21.30;;;;;;455836;260;1259;-76
2022/03/01 06:27:56;;;;;;;;;;;21.20;21.30;;;;;;455941;260;2141;-76
2022/03/01 06:29:57;;;;;;;;;;;21.30;21.30;;;;;;455956;260;982;-76
2022/03/01 06:31:58;;;;;;;;;;;21.30;21.30;;;;;;455824;260;1250;-76
2022/03/01 06:34:00;;;;;;;;;;;21.30;21.30;;;;;;455918;261;1221;-76
2022/03/01 06:36:01;;;;;;;;;;;21.40;21.40;;;;;;455889;260;1216;-76
2022/03/01 06:38:02;;;;;;;;;;;21.40;21.20;;;;;;455881;260;1174;-76
2022/03/01 06:40:06;;;;;;;;;;;21.50;21.30;;;;;;455953;261;1424;-76
2022/03/01 06:42:06;;;;;;;;;;;21.40;21.30;;;;;;448063;261;1461;-76
2022/03/01 06:44:07;;;;;;;;;;;21.40;21.30;;;;;;455805;260;1081;-76
2022/03/01 06:46:09;;;;;;;;;;;21.30;21.30;;;;;;455686;261;1372;-76
2022/03/01 06:48:10;;;;;;;;;;;21.40;21.30;;;;;;456016;260;2140;-76
2022/03/01 06:50:12;;;;;;;;;;;21.40;21.20;;;;;;455870;261;964;-76
2022/03/01 06:52:13;;;;;;;;;;;21.30;21.20;;;;;;455666;260;1238;-76
2022/03/01 06:54:14;;;;;;;;;;;21.30;21.30;;;;;;455739;261;1330;-76
2022/03/01 06:56:15;;;;;;;;;;;21.30;21.20;;;;;;455796;260;1309;-76
2022/03/01 06:58:17;;;;;;;;;;;21.30;21.20;;;;;;455657;261;1120;-76
2022/03/01 07:00:18;;;;;;;;;;;21.30;21.20;;;;;;455676;260;1001;-76
2022/03/01 07:02:20;;;;;;;;;;;21.40;21.10;;;;;;455552;260;1157;-76
2022/03/01 07:04:21;;;;;;;;;;;21.50;21.10;;;;;;455673;260;1124;-76
2022/03/01 07:06:22;;;;;;;;;;;21.30;21.20;;;;;;455641;261;1476;-76
2022/03/01 07:08:25;;;;;;;;;;;21.20;21.30;;;;;;455603;260;2399;-76
2022/03/01 07:10:25;;;;;;;;;;;21.40;21.30;;;;;;455719;256;1261;-76
2022/03/01 07:12:26;;;;;;;;;;;21.40;21.20;;;;;;455789;260;1254;-77
2022/03/01 07:14:28;;;;;;;;;;;21.50;21.10;;;;;;455660;260;1050;-75
2022/03/01 07:16:29;;;;;;;;;;;21.50;21.20;;;;;;455726;261;1122;-76
2022/03/01 07:18:30;;;;;;;;;;;21.50;21.20;;;;;;455729;261;993;-76
2022/03/01 07:20:32;;;;;;;;;;;21.50;21.10;;;;;;455759;260;1229;-76
2022/03/01 07:22:33;;;;;;;;;;;21.50;21.10;;;;;;455801;261;1197;-76
2022/03/01 07:24:34;;;;;;;;;;;21.60;21.10;;;;;;455531;260;1028;-76
2022/03/01 07:26:36;;;;;;;;;;;21.60;21.10;;;;;;455554;261;1401;-76
2022/03/01 07:28:37;;;;;;;;;;;21.60;21.10;;;;;;455457;260;2508;-76
2022/03/01 07:30:38;;;;;;;;;;;21.60;21.10;;;;;;455599;261;1267;-76
2022/03/01 07:32:39;;;;;;;;;;;21.60;21.10;;;;;;455582;261;1156;-76
2022/03/01 07:34:42;;;;;;;;;;;21.60;21.10;;;;;;455520;261;988;-76
2022/03/01 07:36:42;;;;;;;;;;;21.60;21.10;;;;;;455310;256;1501;-75
2022/03/01 07:38:44;;;;;;;;;;;21.60;21.10;;;;;;455534;260;1114;-75
2022/03/01 07:40:45;;;;;;;;;;;21.60;21.10;;;;;;455371;261;1158;-76
2022/03/01 07:42:46;;;;;;;;;;;21.50;21.10;;;;;;455430;260;1209;-76
2022/03/01 07:44:48;;;;;;;;;;;21.60;21.10;;;;;;455352;261;1088;-75
2022/03/01 07:46:49;;;;;;;;;;;21.60;21.10;;;;;;455436;261;1343;-76
2022/03/01 07:48:50;;;;;;;;;;;21.60;21.10;;;;;;457229;256;2207;-76
2022/03/01 07:50:51;;;;;;;;;;;21.60;21.10;;;;;;453325;260;1212;-75
2022/03/01 07:52:53;;;;;;;;;;;21.60;21.10;;;;;;450248;263;1123;-76
2022/03/01 07:54:54;;;;;;;;;;;21.70;21.10;;;;;;449977;261;1609;-76
2022/03/01 07:56:55;;;;;;;;;;;21.70;21.00;;;;;;450118;256;34295;-76
2022/03/01 07:58:57;;;;;;;;;;;21.70;21.10;;;;;;450666;264;1068;-75
2022/03/01 08:00:58;;;;;;;;;;;21.70;21.10;;;;;;449455;265;1193;-76
2022/03/01 08:02:59;;;;;;;;;;;21.70;21.00;;;;;;450249;264;1102;-76
2022/03/01 08:05:01;;;;;;;;;;;21.60;21.10;;;;;;450135;264;1003;-76
2022/03/01 08:07:02;;;;;;;;;;;21.60;21.10;;;;;;450131;264;1338;-75
2022/03/01 08:09:03;;;;;;;;;;;21.70;21.10;;;;;;450262;264;2202;-75
2022/03/01 08:11:05;;;;;;;;;;;21.60;21.10;;;;;;450277;264;1257;-76
2022/03/01 08:13:06;;;;;;;;;;;21.70;21.10;;;;;;450290;264;1220;-76
2022/03/01 08:15:09;;;;;;;;;;;21.70;21.20;;;;;;450059;264;1015;-76
2022/03/01 08:17:09;;;;;;;;;;;21.70;21.10;;;;;;450241;264;2007;-76
2022/03/01 08:19:10;;;;;;;;;;;21.70;21.10;;;;;;450297;264;1074;-75
2022/03/01 08:21:12;;;;;;;;;;;21.70;21.20;;;;;;450246;264;1459;-76
2022/03/01 08:23:13;;;;;;;;;;;21.60;21.20;;;;;;450209;264;1192;-76
2022/03/01 08:25:14;;;;;;;;;;;21.70;21.20;;;;;;450039;264;1028;-76
2022/03/01 08:27:15;;;;;;;;;;;21.80;21.20;;;;;;450180;264;1137;-75
2022/03/01 08:29:17;;;;;;;;;;;21.80;21.10;;;;;;449964;264;1157;-75
2022/03/01 08:31:18;;;;;;;;;;;21.90;21.20;;;;;;450060;264;1092;-75
2022/03/01 08:33:20;;;;;;;;;;;21.90;21.10;;;;;;450154;264;1087;-76
2022/03/01 08:35:21;;;;;;;;;;;21.80;21.10;;;;;;450177;264;1096;-76
2022/03/01 08:37:22;;;;;;;;;;;21.90;21.10;;;;;;450176;264;1142;-76
2022/03/01 08:39:24;;;;;;;;;;;21.80;21.20;;;;;;450241;264;1033;-76
2022/03/01 08:41:25;;;;;;;;;;;21.70;21.20;;;;;;450209;264;1015;-76
2022/03/01 08:43:26;;;;;;;;;;;21.80;21.20;;;;;;450203;264;1108;-76
2022/03/01 08:45:28;;;;;;;;;;;21.70;21.20;;;;;;450188;264;1081;-76
2022/03/01 08:47:29;;;;;;;;;;;21.80;21.20;;;;;;450225;264;2205;-76
2022/03/01 08:49:30;;;;;;;;;;;21.80;21.20;;;;;;450267;264;1003;-76
2022/03/01 08:51:32;;;;;;;;;;;21.80;21.20;;;;;;450198;264;1228;-76
2022/03/01 08:53:33;;;;;;;;;;;21.70;21.20;;;;;;450016;264;1229;-76
2022/03/01 08:55:34;;;;;;;;;;;21.80;21.20;;;;;;449885;264;1066;-76
2022/03/01 08:57:36;;;;;;;;;;;21.80;21.20;;;;;;450044;264;1016;-75
2022/03/01 08:59:37;;;;;;;;;;;21.80;21.20;;;;;;450155;264;1084;-76
2022/03/01 09:01:38;;;;;;;;;;;21.80;21.20;;;;;;450039;264;1008;-76
2022/03/01 09:03:40;;;;;;;;;;;21.70;21.20;;;;;;450095;264;1110;-76
2022/03/01 09:05:41;;;;;;;;;;;21.80;21.20;;;;;;450055;264;1463;-76
2022/03/01 09:07:42;;;;;;;;;;;21.90;21.20;;;;;;450155;264;2154;-76
2022/03/01 09:09:44;;;;;;;;;;;21.90;21.20;;;;;;450058;264;1214;-76
2022/03/01 09:11:45;;;;;;;;;;;21.90;21.20;;;;;;450163;264;1255;-76
2022/03/01 09:13:47;;;;;;;;;;;21.80;21.20;;;;;;449992;264;1004;-75
2022/03/01 09:15:48;;;;;;;;;;;21.90;21.20;;;;;;449913;264;1123;-76
2022/03/01 09:17:49;;;;;;;;;;;21.90;21.30;;;;;;450089;264;1069;-76
2022/03/01 09:19:51;;;;;;;;;;;21.90;21.30;;;;;;450046;264;1051;-75
2022/03/01 09:21:52;;;;;;;;;;;21.90;21.30;;;;;;450262;264;1162;-76
2022/03/01 09:23:54;;;;;;;;;;;21.90;21.30;;;;;;450220;264;1227;-76
2022/03/01 09:25:55;;;;;;;;;;;21.80;21.30;;;;;;450161;264;1158;-76
2022/03/01 09:27:56;;;;;;;;;;;21.90;21.40;;;;;;450139;264;2199;-76
2022/03/01 09:29:57;;;;;;;;;;;21.90;21.30;;;;;;449951;264;1165;-76
2022/03/01 09:31:59;;;;;;;;;;;22.00;21.20;;;;;;450103;264;1218;-76
2022/03/01 09:34:00;;;;;;;;;;;21.90;21.20;;;;;;450152;264;974;-76
2022/03/01 09:36:01;;;;;;;;;;;21.90;21.30;;;;;;450147;260;1157;-76
2022/03/01 09:38:03;;;;;;;;;;;21.90;21.30;;;;;;450046;264;1110;-75
2022/03/01 09:40:04;;;;;;;;;;;22.10;21.30;;;;;;449851;264;1213;-76
2022/03/01 09:42:05;;;;;;;;;;;22.30;21.20;;;;;;450044;264;1232;-75
2022/03/01 09:44:07;;;;;;;;;;;22.50;21.10;;;;;;450151;264;977;-76
2022/03/01 09:46:08;;;;;;;;;;;22.60;21.00;;;;;;450149;264;1238;-76
2022/03/01 09:48:09;;;;;;;;;;;22.80;20.90;;;;;;450073;264;2206;-76
2022/03/01 09:50:11;;;;;;;;;;;23.00;20.90;;;;;;450050;264;1006;-76
2022/03/01 09:52:12;;;;;;;;;;;23.10;20.80;;;;;;450088;264;1131;-76
2022/03/01 09:54:13;;;;;;;;;;;23.20;20.70;;;;;;450315;264;1236;-76
2022/03/01 09:56:15;;;;;;;;;;;23.30;20.60;;;;;;450122;260;1236;-76
2022/03/01 09:58:16;;;;;;;;;;;23.40;20.70;;;;;;450294;264;1260;-76
2022/03/01 10:00:17;;;;;;;;;;;23.30;20.60;;;;;;450206;264;1020;-76
2022/03/01 10:02:19;;;;;;;;;;;23.40;20.70;;;;;;450282;264;1173;-76
2022/03/01 10:04:20;;;;;;;;;;;23.30;20.70;;;;;;450054;264;1160;-76
2022/03/01 10:06:22;;;;;;;;;;;23.00;20.80;;;;;;450015;264;1234;-76
2022/03/01 10:08:24;;;;;;;;;;;23.10;20.90;;;;;;450041;264;2213;-76
2022/03/01 10:10:25;;;;;;;;;;;22.90;20.90;;;;;;450193;263;1246;-75
2022/03/01 10:12:26;;;;;;;;;;;22.80;20.90;;;;;;450226;264;1219;-76
2022/03/01 10:14:27;;;;;;;;;;;22.60;21.00;;;;;;450223;264;1073;-76
2022/03/01 10:16:29;;;;;;;;;;;22.60;21.10;;;;;;449784;264;1218;-76
2022/03/01 10:18:30;;;;;;;;;;;22.60;21.10;;;;;;450160;264;978;-76
2022/03/01 10:20:31;;;;;;;;;;;22.50;21.10;;;;;;450125;264;1234;-75
2022/03/01 10:22:33;;;;;;;;;;;22.50;21.10;;;;;;450138;264;1083;-76
2022/03/01 10:24:34;;;;;;;;;;;22.40;21.10;;;;;;450234;264;1123;-76
2022/03/01 10:26:37;;;;;;;;;;;22.40;21.10;;;;;;450161;264;1213;-76
2022/03/01 10:28:38;;;;;;;;;;;22.30;21.10;;;;;;450022;264;2184;-77
2022/03/01 10:30:39;;;;;;;;;;;22.40;21.20;;;;;;450034;264;993;-76
2022/03/01 10:32:41;;;;;;;;;;;22.30;21.20;;;;;;449977;264;1199;-76
2022/03/01 10:34:42;;;;;;;;;;;22.40;21.10;;;;;;450082;264;1280;-76
2022/03/01 10:36:44;;;;;;;;;;;22.40;21.10;;;;;;450173;264;1158;-76
2022/03/01 10:38:45;;;;;;;;;;;22.40;21.00;;;;;;450678;264;1483;-76
2022/03/01 10:40:46;;;;;;;;;;;22.20;21.00;;;;;;450393;264;1158;-76
2022/03/01 10:42:48;;;;;;;;;;;22.30;21.10;;;;;;450649;264;1153;-76
2022/03/01 10:44:49;;;;;;;;;;;22.20;21.10;;;;;;450152;264;1073;-77
2022/03/01 10:46:50;;;;;;;;;;;22.10;21.10;;;;;;450238;264;1264;-76
2022/03/01 10:48:52;;;;;;;;;;;22.10;21.10;;;;;;450267;264;2139;-77
2022/03/01 10:50:53;;;;;;;;;;;22.20;21.10;;;;;;450154;264;1209;-76
2022/03/01 10:52:54;;;;;;;;;;;22.20;21.10;;;;;;450108;264;1297;-76
2022/03/01 10:54:55;;;;;;;;;;;22.10;21.10;;;;;;449897;264;1151;-76
2022/03/01 10:56:57;;;;;;;;;;;22.20;21.00;;;;;;449964;264;1232;-76
2022/03/01 10:58:58;;;;;;;;;;;22.10;21.10;;;;;;449836;264;1008;-76
2022/03/01 11:00:59;;;;;;;;;;;22.00;21.20;;;;;;449801;264;1208;-77
2022/03/01 11:03:01;;;;;;;;;;;22.10;21.10;;;;;;450102;264;1187;-76
2022/03/01 11:05:02;;;;;;;;;;;22.00;21.20;;;;;;449982;264;1010;-76
2022/03/01 11:07:03;;;;;;;;;;;22.00;21.10;;;;;;450058;264;1240;-76
2022/03/01 11:09:05;;;;;;;;;;;22.10;21.20;;;;;;450114;264;2198;-76
2022/03/01 11:11:06;;;;;;;;;;;22.00;21.10;;;;;;449971;264;1335;-76
2022/03/01 11:13:07;;;;;;;;;;;22.00;21.10;;;;;;450195;264;1200;-76
2022/03/01 11:15:09;;;;;;;;;;;21.90;21.10;;;;;;450095;264;1039;-76
2022/03/01 11:17:10;;;;;;;;;;;22.00;21.10;;;;;;449991;264;1248;-76
2022/03/01 11:19:11;;;;;;;;;;;22.00;21.10;;;;;;450196;264;1038;-76
2022/03/01 11:21:13;;;;;;;;;;;21.90;21.10;;;;;;450101;264;1376;-76
2022/03/01 11:23:14;;;;;;;;;;;21.90;21.20;;;;;;450412;264;1126;-76
2022/03/01 11:25:15;;;;;;;;;;;21.90;21.10;;;;;;450182;264;1210;-76
2022/03/01 11:27:17;;;;;;;;;;;21.90;21.10;;;;;;450366;264;1150;-76
2022/03/01 11:29:18;;;;;;;;;;;21.80;21.10;;;;;;450033;264;2202;-76
2022/03/01 11:31:19;;;;;;;;;;;21.90;21.20;;;;;;450125;264;1203;-76
2022/03/01 11:33:21;;;;;;;;;;;22.00;21.10;;;;;;450070;264;1129;-76
2022/03/01 11:35:22;;;;;;;;;;;22.00;21.10;;;;;;450049;264;1006;-76
2022/03/01 11:37:24;;;;;;;;;;;22.00;21.00;;;;;;450123;264;1096;-76
2022/03/01 11:39:25;;;;;;;;;;;22.00;21.00;;;;;;450194;264;1113;-76
2022/03/01 11:41:26;;;;;;;;;;;21.90;21.00;;;;;;450056;264;1197;-76
2022/03/01 11:43:28;;;;;;;;;;;22.10;21.00;;;;;;450030;264;1245;-77
2022/03/01 11:45:29;;;;;;;;;;;22.00;21.00;;;;;;449970;264;1011;-76
2022/03/01 11:47:30;;;;;;;;;;;22.00;21.00;;;;;;450030;264;1214;-76
2022/03/01 11:49:32;;;;;;;;;;;21.80;21.10;;;;;;450154;264;2218;-76
2022/03/01 11:51:33;;;;;;;;;;;22.00;21.10;;;;;;450211;264;1327;-76
2022/03/01 11:53:34;;;;;;;;;;;21.90;21.00;;;;;;450174;264;1111;-76
2022/03/01 11:55:36;;;;;;;;;;;22.00;21.00;;;;;;450231;264;1192;-76
2022/03/01 11:57:37;;;;;;;;;;;21.90;21.00;;;;;;450210;264;1057;-76
2022/03/01 11:59:38;;;;;;;;;;;22.00;21.00;;;;;;450063;264;1095;-76